createdAt,value
2018-05-26T00:00:32.252Z,13.50
2018-05-26T00:03:00.525Z,13.50
2018-05-26T00:05:27.988Z,13.40
2018-05-26T00:07:56.225Z,13.50
2018-05-26T00:10:23.744Z,13.40
2018-05-26T00:12:51.297Z,13.40
2018-05-26T00:15:18.776Z,13.40
2018-05-26T00:17:46.240Z,13.40
2018-05-26T00:20:13.721Z,13.40
2018-05-26T00:25:49.783Z,13.50
2018-05-26T00:28:17.680Z,13.40
2018-05-26T00:30:45.746Z,13.30
2018-05-26T00:33:14.614Z,13.30
2018-05-26T00:35:43.415Z,13.30
2018-05-26T00:38:13.635Z,13.20
2018-05-26T00:40:43.260Z,13.20
2018-05-26T00:43:11.321Z,13.20
2018-05-26T00:45:40.467Z,13.20
2018-05-26T00:48:10.159Z,13.20
2018-05-26T00:50:39.052Z,13.20
2018-05-26T00:53:07.015Z,13.20
2018-05-26T00:55:35.497Z,13.10
2018-05-26T00:58:04.798Z,13.10
2018-05-26T01:00:33.649Z,13.10
2018-05-26T01:03:01.634Z,13.10
2018-05-26T01:05:30.263Z,13.10
2018-05-26T01:07:58.269Z,13.10
2018-05-26T01:10:29.967Z,13.10
2018-05-26T01:12:58.705Z,13.10
2018-05-26T01:15:26.571Z,13.10
2018-05-26T01:17:54.820Z,13.10
2018-05-26T01:20:22.989Z,13.10
2018-05-26T01:22:51.035Z,13.10
2018-05-26T01:25:18.952Z,13.00
2018-05-26T01:27:47.545Z,13.00
2018-05-26T01:30:15.639Z,12.90
2018-05-26T01:32:45.355Z,13.00
2018-05-26T01:35:13.134Z,13.00
2018-05-26T01:37:40.999Z,12.90
2018-05-26T01:40:09.589Z,12.90
2018-05-26T01:42:38.144Z,12.90
2018-05-26T01:45:06.003Z,12.80
2018-05-26T01:47:34.142Z,12.90
2018-05-26T01:50:02.858Z,12.80
2018-05-26T01:52:32.609Z,12.80
2018-05-26T01:55:01.546Z,12.80
2018-05-26T01:57:30.063Z,12.80
2018-05-26T01:59:58.241Z,12.70
2018-05-26T02:02:27.355Z,12.80
2018-05-26T02:04:56.416Z,12.70
2018-05-26T02:07:25.686Z,12.70
2018-05-26T02:09:53.877Z,12.70
2018-05-26T02:12:22.761Z,12.70
2018-05-26T02:14:50.733Z,12.70
2018-05-26T02:17:19.309Z,12.70
2018-05-26T02:19:47.272Z,12.70
2018-05-26T02:22:15.579Z,12.70
2018-05-26T02:24:45.305Z,12.70
2018-05-26T02:27:18.545Z,12.70
2018-05-26T02:29:52.364Z,12.70
2018-05-26T02:32:21.320Z,12.80
2018-05-26T02:34:50.371Z,12.70
2018-05-26T02:37:20.421Z,12.80
2018-05-26T02:39:48.649Z,12.70
2018-05-26T02:42:17.040Z,12.70
2018-05-26T02:44:46.011Z,12.70
2018-05-26T02:47:18.101Z,12.70
2018-05-26T02:49:46.762Z,12.80
2018-05-26T02:52:15.845Z,12.80
2018-05-26T02:54:44.126Z,12.70
2018-05-26T02:57:13.173Z,12.80
2018-05-26T02:59:41.743Z,12.80
2018-05-26T03:02:10.528Z,12.80
2018-05-26T03:04:44.622Z,12.80
2018-05-26T03:09:58.198Z,12.70
2018-05-26T03:12:34.021Z,12.70
2018-05-26T03:15:03.156Z,12.70
2018-05-26T03:17:35.398Z,12.70
2018-05-26T03:20:03.581Z,12.70
2018-05-26T03:22:31.846Z,12.70
2018-05-26T03:25:00.564Z,12.70
2018-05-26T03:27:30.050Z,12.70
2018-05-26T03:29:58.864Z,12.80
2018-05-26T03:32:27.775Z,12.80
2018-05-26T03:34:55.878Z,12.80
2018-05-26T03:37:24.126Z,12.80
2018-05-26T03:39:52.151Z,12.80
2018-05-26T03:42:20.252Z,12.90
2018-05-26T03:44:49.491Z,12.80
2018-05-26T03:47:17.472Z,12.80
2018-05-26T03:49:46.500Z,12.80
2018-05-26T03:52:14.065Z,12.80
2018-05-26T03:54:53.287Z,12.90
2018-05-26T03:57:32.609Z,12.90
2018-05-26T04:00:17.786Z,12.90
2018-05-26T04:02:45.295Z,12.90
2018-05-26T04:05:12.886Z,12.90
2018-05-26T04:07:40.425Z,12.90
2018-05-26T04:10:07.921Z,12.90
2018-05-26T04:12:36.196Z,13.00
2018-05-26T04:15:04.480Z,13.10
2018-05-26T04:17:32.744Z,13.10
2018-05-26T04:20:01.047Z,13.10
2018-05-26T04:22:28.573Z,13.10
2018-05-26T04:24:56.083Z,13.10
2018-05-26T04:27:23.722Z,13.20
2018-05-26T04:29:51.220Z,13.20
2018-05-26T04:32:18.841Z,13.30
2018-05-26T04:34:46.336Z,13.30
2018-05-26T04:37:13.857Z,13.30
2018-05-26T04:39:41.473Z,13.30
2018-05-26T04:42:09.065Z,13.40
2018-05-26T04:44:36.587Z,13.40
2018-05-26T04:47:04.086Z,13.40
2018-05-26T04:49:31.639Z,13.50
2018-05-26T04:51:59.149Z,13.50
2018-05-26T04:54:26.744Z,13.60
2018-05-26T04:56:55.045Z,13.70
2018-05-26T04:59:22.542Z,13.70
2018-05-26T05:01:54.129Z,13.70
2018-05-26T05:04:22.493Z,13.90
2018-05-26T05:06:49.990Z,13.80
2018-05-26T05:09:18.447Z,13.90
2018-05-26T05:11:48.226Z,14.10
2018-05-26T05:14:15.829Z,14.20
2018-05-26T05:16:43.407Z,14.20
2018-05-26T05:19:12.781Z,14.30
2018-05-26T05:21:40.348Z,14.50
2018-05-26T05:24:07.949Z,14.50
2018-05-26T05:26:35.465Z,14.50
2018-05-26T05:29:03.109Z,14.60
2018-05-26T05:31:30.840Z,14.70
2018-05-26T05:33:58.589Z,14.80
2018-05-26T05:36:26.121Z,14.90
2018-05-26T05:38:53.945Z,15.00
2018-05-26T05:41:21.899Z,15.00
2018-05-26T05:43:50.333Z,15.10
2018-05-26T05:46:22.048Z,15.10
2018-05-26T05:48:52.215Z,15.20
2018-05-26T05:51:19.988Z,15.20
2018-05-26T05:53:48.848Z,15.30
2018-05-26T05:56:17.370Z,15.40
2018-05-26T05:58:47.356Z,15.40
2018-05-26T06:01:15.071Z,15.50
2018-05-26T06:03:42.562Z,15.50
2018-05-26T06:06:10.043Z,15.60
2018-05-26T06:08:37.536Z,15.80
2018-05-26T06:11:05.029Z,15.90
2018-05-26T06:13:32.530Z,16.00
2018-05-26T06:16:00.024Z,16.10
2018-05-26T06:18:27.510Z,16.20
2018-05-26T06:20:55.772Z,16.40
2018-05-26T06:23:23.267Z,16.40
2018-05-26T06:25:50.723Z,16.60
2018-05-26T06:28:18.980Z,16.80
2018-05-26T06:30:48.100Z,16.80
2018-05-26T06:33:15.575Z,16.80
2018-05-26T06:35:43.061Z,16.90
2018-05-26T06:38:10.529Z,17.00
2018-05-26T06:40:37.982Z,17.10
2018-05-26T06:43:05.712Z,17.20
2018-05-26T06:48:16.052Z,17.30
2018-05-26T06:50:45.593Z,17.40
2018-05-26T06:53:13.184Z,17.50
2018-05-26T06:55:40.794Z,17.60
2018-05-26T06:58:08.493Z,17.60
2018-05-26T07:00:36.023Z,17.80
2018-05-26T07:03:03.500Z,17.90
2018-05-26T07:05:31.127Z,18.00
2018-05-26T07:08:03.062Z,18.10
2018-05-26T07:10:30.627Z,18.10
2018-05-26T07:12:58.133Z,18.30
2018-05-26T07:15:25.607Z,18.40
2018-05-26T07:17:53.099Z,18.50
2018-05-26T07:20:21.390Z,18.60
2018-05-26T07:22:48.870Z,18.60
2018-05-26T07:25:16.469Z,18.70
2018-05-26T07:27:43.962Z,18.80
2018-05-26T07:30:13.232Z,19.00
2018-05-26T07:32:40.737Z,19.00
2018-05-26T07:35:08.209Z,19.10
2018-05-26T07:37:35.771Z,19.20
2018-05-26T07:40:03.288Z,19.30
2018-05-26T07:42:31.553Z,19.50
2018-05-26T07:44:59.077Z,19.40
2018-05-26T07:47:26.597Z,19.50
2018-05-26T07:49:54.081Z,19.60
2018-05-26T07:52:21.699Z,19.70
2018-05-26T07:54:49.988Z,19.80
2018-05-26T07:57:17.486Z,19.80
2018-05-26T07:59:45.015Z,19.90
2018-05-26T08:02:12.682Z,20.00
2018-05-26T08:04:40.137Z,20.10
2018-05-26T08:07:07.608Z,20.20
2018-05-26T08:09:35.094Z,20.20
2018-05-26T08:12:02.646Z,20.40
2018-05-26T08:14:30.172Z,20.50
2018-05-26T08:16:57.717Z,20.60
2018-05-26T08:19:25.247Z,20.70
2018-05-26T08:21:52.753Z,20.70
2018-05-26T08:24:20.230Z,20.70
2018-05-26T08:26:47.749Z,20.70
2018-05-26T08:29:15.260Z,20.90
2018-05-26T08:31:42.870Z,21.00
2018-05-26T08:34:10.369Z,21.00
2018-05-26T08:36:37.852Z,21.00
2018-05-26T08:39:05.350Z,21.10
2018-05-26T08:41:32.885Z,21.20
2018-05-26T08:44:00.397Z,21.30
2018-05-26T08:46:27.885Z,21.30
2018-05-26T08:48:56.176Z,21.30
2018-05-26T08:51:24.497Z,21.40
2018-05-26T08:53:52.018Z,21.40
2018-05-26T08:56:19.480Z,21.50
2018-05-26T08:58:47.007Z,21.50
2018-05-26T09:01:14.502Z,21.50
2018-05-26T09:03:42.031Z,21.60
2018-05-26T09:06:10.299Z,21.80
2018-05-26T09:08:37.805Z,21.80
2018-05-26T09:11:05.286Z,21.90
2018-05-26T09:13:32.808Z,22.00
2018-05-26T09:16:00.306Z,22.00
2018-05-26T09:18:27.811Z,22.20
2018-05-26T09:20:55.344Z,22.30
2018-05-26T09:23:22.869Z,22.30
2018-05-26T09:25:50.354Z,22.30
2018-05-26T09:28:17.850Z,22.40
2018-05-26T09:30:45.340Z,22.40
2018-05-26T09:33:12.825Z,22.50
2018-05-26T09:35:40.313Z,22.60
2018-05-26T09:38:08.565Z,22.80
2018-05-26T09:40:36.068Z,22.80
2018-05-26T09:43:03.606Z,22.90
2018-05-26T09:45:31.877Z,23.10
2018-05-26T09:48:00.142Z,23.10
2018-05-26T09:50:28.448Z,23.20
2018-05-26T09:52:55.936Z,23.20
2018-05-26T09:55:23.454Z,23.30
2018-05-26T09:57:50.942Z,23.30
2018-05-26T10:00:18.512Z,23.30
2018-05-26T10:02:45.969Z,23.40
2018-05-26T10:05:13.461Z,23.50
2018-05-26T10:07:40.977Z,23.50
2018-05-26T10:10:08.536Z,23.50
2018-05-26T10:12:36.038Z,23.60
2018-05-26T10:15:03.514Z,23.60
2018-05-26T10:17:31.048Z,23.60
2018-05-26T10:19:58.574Z,23.70
2018-05-26T10:22:26.779Z,23.90
2018-05-26T10:24:54.253Z,24.00
2018-05-26T10:27:22.495Z,24.10
2018-05-26T10:29:49.988Z,24.10
2018-05-26T10:32:17.534Z,24.10
2018-05-26T10:34:45.022Z,24.10
2018-05-26T10:37:13.277Z,24.20
2018-05-26T10:39:40.779Z,24.20
2018-05-26T10:42:08.262Z,24.30
2018-05-26T10:44:35.741Z,24.30
2018-05-26T10:47:03.227Z,24.40
2018-05-26T10:49:30.703Z,24.40
2018-05-26T10:51:58.190Z,24.50
2018-05-26T10:54:25.665Z,24.60
2018-05-26T10:56:53.120Z,24.60
2018-05-26T10:59:20.588Z,24.50
2018-05-26T11:01:48.837Z,24.40
2018-05-26T11:04:16.406Z,24.40
2018-05-26T11:06:46.639Z,24.40
2018-05-26T11:09:14.129Z,24.50
2018-05-26T11:11:41.620Z,24.50
2018-05-26T11:14:09.117Z,24.60
2018-05-26T11:16:36.581Z,24.60
2018-05-26T11:19:04.902Z,24.80
2018-05-26T11:21:33.122Z,24.90
2018-05-26T11:24:00.838Z,24.90
2018-05-26T11:26:28.146Z,24.90
2018-05-26T11:28:55.726Z,24.70
2018-05-26T11:31:23.204Z,24.70
2018-05-26T11:33:50.693Z,24.80
2018-05-26T11:36:18.178Z,24.80
2018-05-26T11:38:45.645Z,24.80
2018-05-26T11:41:13.161Z,24.80
2018-05-26T11:43:40.720Z,24.90
2018-05-26T11:46:08.166Z,25.00
2018-05-26T11:48:35.671Z,25.00
2018-05-26T11:51:03.209Z,25.00
2018-05-26T11:53:31.520Z,25.00
2018-05-26T11:55:59.030Z,25.00
2018-05-26T11:58:26.538Z,25.10
2018-05-26T12:00:54.046Z,25.20
2018-05-26T12:03:21.515Z,25.20
2018-05-26T12:05:48.981Z,25.20
2018-05-26T12:08:16.456Z,25.30
2018-05-26T12:10:43.999Z,25.20
2018-05-26T12:13:11.503Z,25.30
2018-05-26T12:15:38.997Z,25.30
2018-05-26T12:18:06.485Z,25.30
2018-05-26T12:20:33.961Z,25.30
2018-05-26T12:23:01.491Z,25.40
2018-05-26T12:25:29.049Z,25.40
2018-05-26T12:27:56.478Z,25.50
2018-05-26T12:30:23.965Z,25.50
2018-05-26T12:32:51.455Z,25.50
2018-05-26T12:35:18.968Z,25.50
2018-05-26T12:37:46.437Z,25.50
2018-05-26T12:40:13.978Z,25.40
2018-05-26T12:42:41.482Z,25.40
2018-05-26T12:45:08.990Z,25.40
2018-05-26T12:47:36.469Z,25.30
2018-05-26T12:50:03.978Z,25.40
2018-05-26T12:52:31.482Z,25.30
2018-05-26T12:54:58.952Z,25.30
2018-05-26T12:57:27.194Z,25.30
2018-05-26T12:59:54.695Z,25.30
2018-05-26T13:02:22.988Z,25.40
2018-05-26T13:04:50.471Z,25.40
2018-05-26T13:07:17.933Z,25.40
2018-05-26T13:09:45.509Z,25.30
2018-05-26T13:12:13.005Z,25.30
2018-05-26T13:14:40.490Z,25.30
2018-05-26T13:17:07.975Z,25.30
2018-05-26T13:19:35.457Z,25.30
2018-05-26T13:22:02.940Z,25.30
2018-05-26T13:24:30.407Z,25.30
2018-05-26T13:26:57.878Z,25.30
2018-05-26T13:29:25.369Z,25.40
2018-05-26T13:31:52.847Z,25.40
2018-05-26T13:34:20.318Z,25.50
2018-05-26T13:36:48.580Z,25.60
2018-05-26T13:39:16.061Z,25.60
2018-05-26T13:41:43.584Z,25.60
2018-05-26T13:44:11.079Z,25.60
2018-05-26T13:46:38.563Z,25.60
2018-05-26T13:49:06.034Z,25.50
2018-05-26T13:51:33.572Z,25.40
2018-05-26T13:54:01.124Z,25.50
2018-05-26T13:56:28.617Z,25.40
2018-05-26T13:58:56.073Z,25.40
2018-05-26T14:01:23.594Z,25.40
2018-05-26T14:03:51.085Z,25.50
2018-05-26T14:06:18.565Z,25.40
2018-05-26T14:08:46.055Z,25.30
2018-05-26T14:11:13.537Z,25.20
2018-05-26T14:13:41.034Z,25.20
2018-05-26T14:16:08.525Z,25.20
2018-05-26T14:18:35.988Z,25.20
2018-05-26T14:21:03.478Z,25.10
2018-05-26T14:23:30.980Z,24.90
2018-05-26T14:25:59.210Z,24.80
2018-05-26T14:28:26.715Z,24.80
2018-05-26T14:30:54.193Z,24.90
2018-05-26T14:33:21.655Z,24.80
2018-05-26T14:35:49.117Z,24.80
2018-05-26T14:38:16.593Z,24.80
2018-05-26T14:40:44.115Z,24.80
2018-05-26T14:43:11.581Z,24.70
2018-05-26T14:45:39.030Z,24.70
2018-05-26T14:48:06.645Z,24.70
2018-05-26T14:50:34.144Z,24.70
2018-05-26T14:53:01.626Z,24.60
2018-05-26T14:55:29.096Z,24.70
2018-05-26T14:57:56.577Z,24.70
2018-05-26T15:00:24.086Z,24.70
2018-05-26T15:02:51.556Z,24.70
2018-05-26T15:05:19.033Z,24.70
2018-05-26T15:07:46.530Z,24.60
2018-05-26T15:10:14.802Z,24.50
2018-05-26T15:12:42.298Z,24.40
2018-05-26T15:15:09.777Z,24.50
2018-05-26T15:17:37.264Z,24.50
2018-05-26T15:20:04.896Z,24.40
2018-05-26T15:22:32.368Z,24.40
2018-05-26T15:24:59.829Z,24.40
2018-05-26T15:27:27.526Z,24.40
2018-05-26T15:29:55.026Z,24.40
2018-05-26T15:32:22.540Z,24.40
2018-05-26T15:34:50.769Z,24.30
2018-05-26T15:37:18.244Z,24.30
2018-05-26T15:39:45.702Z,24.30
2018-05-26T15:42:13.183Z,24.20
2018-05-26T15:44:41.429Z,24.30
2018-05-26T15:47:08.893Z,24.20
2018-05-26T15:49:36.521Z,24.20
2018-05-26T15:52:04.005Z,24.20
2018-05-26T15:54:31.495Z,24.20
2018-05-26T15:56:59.730Z,24.00
2018-05-26T15:59:27.207Z,24.00
2018-05-26T16:01:54.673Z,24.00
2018-05-26T16:04:22.892Z,23.90
2018-05-26T16:06:50.385Z,23.90
2018-05-26T16:09:18.018Z,23.90
2018-05-26T16:11:45.478Z,24.00
2018-05-26T16:14:13.036Z,24.00
2018-05-26T16:16:40.548Z,23.90
2018-05-26T16:19:08.857Z,23.90
2018-05-26T16:21:36.349Z,23.90
2018-05-26T16:24:04.000Z,23.80
2018-05-26T16:26:31.494Z,23.80
2018-05-26T16:28:59.772Z,23.70
2018-05-26T16:31:43.071Z,23.60
2018-05-26T16:34:14.854Z,23.60
2018-05-26T16:36:45.867Z,23.60
2018-05-26T16:39:17.901Z,23.50
2018-05-26T18:10:27.163Z,21.60
2018-05-26T18:12:56.873Z,21.50
2018-05-26T18:15:24.391Z,21.40
2018-05-26T18:17:54.115Z,21.40
2018-05-26T18:20:24.467Z,21.40
2018-05-26T18:22:52.748Z,21.30
2018-05-26T18:25:21.566Z,21.20
2018-05-26T18:28:09.775Z,21.20
2018-05-26T18:30:37.499Z,21.20
2018-05-26T18:33:05.203Z,21.10
2018-05-26T18:35:33.927Z,21.10
2018-05-26T18:38:03.596Z,21.00
2018-05-26T18:49:41.083Z,20.70
2018-05-26T18:52:08.625Z,20.70
2018-05-26T18:54:36.084Z,20.70
2018-05-26T18:57:03.633Z,20.70
2018-05-26T18:59:31.179Z,20.60
2018-05-26T19:01:58.661Z,20.50
2018-05-26T19:04:26.167Z,20.50
2018-05-26T19:06:53.636Z,20.50
2018-05-26T19:09:21.117Z,20.50
2018-05-26T19:11:49.395Z,20.40
2018-05-26T19:14:16.934Z,20.40
2018-05-26T19:16:44.416Z,20.40
2018-05-26T19:19:11.922Z,20.30
2018-05-26T19:21:39.474Z,20.20
2018-05-26T19:24:06.961Z,20.20
2018-05-26T19:26:34.457Z,20.20
2018-05-26T19:29:01.874Z,20.10
2018-05-26T19:31:29.354Z,20.10
2018-05-26T19:33:57.600Z,19.90
2018-05-26T19:36:25.159Z,19.90
2018-05-26T19:38:52.697Z,19.80
2018-05-26T19:41:20.194Z,19.70
2018-05-26T19:43:47.668Z,19.70
2018-05-26T19:46:15.151Z,19.60
2018-05-26T19:48:42.637Z,19.60
2018-05-26T19:51:10.106Z,19.50
2018-05-26T19:53:37.592Z,19.40
2018-05-26T19:56:05.049Z,19.30
2018-05-26T19:58:33.296Z,19.20
2018-05-26T20:01:00.784Z,19.20
2018-05-26T20:03:29.088Z,19.10
2018-05-26T20:05:56.647Z,19.10
2018-05-26T20:08:24.124Z,19.00
2018-05-26T20:10:51.613Z,18.90
2018-05-26T20:13:19.101Z,18.90
2018-05-26T20:15:46.587Z,18.90
2018-05-26T20:18:14.076Z,18.80
2018-05-26T20:20:41.577Z,18.70
2018-05-26T20:23:09.080Z,18.70
2018-05-26T20:25:36.559Z,18.70
2018-05-26T20:28:04.025Z,18.60
2018-05-26T20:30:31.508Z,18.50
2018-05-26T20:32:59.011Z,18.50
2018-05-26T20:35:26.503Z,18.40
2018-05-26T20:37:54.745Z,18.30
2018-05-26T20:40:22.290Z,18.30
2018-05-26T20:42:49.777Z,18.30
2018-05-26T20:45:17.271Z,18.20
2018-05-26T20:47:44.823Z,18.10
2018-05-26T20:50:12.328Z,18.10
2018-05-26T20:52:39.799Z,18.00
2018-05-26T20:55:07.264Z,17.90
2018-05-26T20:57:34.736Z,17.90
2018-05-26T21:00:02.982Z,17.70
2018-05-26T21:02:30.487Z,17.70
2018-05-26T21:04:58.724Z,17.60
2018-05-26T21:07:26.586Z,17.60
2018-05-26T21:09:54.311Z,17.50
2018-05-26T21:12:21.805Z,17.50
2018-05-26T21:14:49.345Z,17.40
2018-05-26T21:17:16.833Z,17.40
2018-05-26T21:19:44.322Z,17.40
2018-05-26T21:22:11.823Z,17.30
2018-05-26T21:24:39.377Z,17.30
2018-05-26T21:27:06.897Z,17.20
2018-05-26T21:29:35.177Z,17.10
2018-05-26T21:32:02.646Z,17.10
2018-05-26T21:34:30.154Z,16.90
2018-05-26T21:36:57.617Z,16.90
2018-05-26T21:39:25.115Z,16.90
2018-05-26T21:41:52.621Z,16.80
2018-05-26T21:44:20.997Z,16.80
2018-05-26T21:46:48.535Z,16.70
2018-05-26T21:49:17.281Z,16.70
2018-05-26T21:51:45.917Z,16.50
2018-05-26T21:54:13.460Z,16.50
2018-05-26T21:56:40.950Z,16.50
2018-05-26T21:59:08.464Z,16.50
2018-05-26T22:01:35.945Z,16.50
2018-05-26T22:04:03.440Z,16.50
2018-05-26T22:06:30.927Z,16.50
2018-05-26T22:08:58.396Z,16.40
2018-05-26T22:11:25.873Z,16.30
2018-05-26T22:13:53.344Z,16.40
2018-05-26T22:16:20.807Z,16.30
2018-05-26T22:18:48.321Z,16.30
2018-05-26T22:21:15.823Z,16.20
2018-05-26T22:23:43.276Z,16.20
2018-05-26T22:26:10.753Z,16.20
2018-05-26T22:28:38.435Z,16.10
2018-05-26T22:31:06.214Z,16.10
2018-05-26T22:33:33.742Z,16.10
2018-05-26T22:36:01.229Z,16.10
2018-05-26T22:38:28.699Z,16.10
2018-05-26T22:40:56.176Z,16.10
2018-05-26T22:43:23.688Z,16.10
2018-05-26T22:45:51.165Z,16.10
2018-05-26T22:48:18.646Z,16.10
2018-05-26T22:50:46.139Z,16.10
2018-05-26T22:53:13.624Z,16.10
2018-05-26T22:55:41.868Z,15.90
2018-05-26T22:58:09.365Z,15.90
2018-05-26T23:00:36.828Z,15.90
2018-05-26T23:03:04.308Z,15.80
2018-05-26T23:05:32.388Z,15.80
2018-05-26T23:08:00.756Z,15.80
2018-05-26T23:10:28.446Z,15.80
2018-05-26T23:12:56.093Z,15.70
2018-05-26T23:15:23.554Z,15.70
2018-05-26T23:17:51.049Z,15.60
2018-05-26T23:20:19.553Z,15.60
2018-05-26T23:22:47.057Z,15.60
2018-05-26T23:25:14.525Z,15.60
2018-05-26T23:27:41.977Z,15.60
2018-05-26T23:30:09.482Z,15.60
2018-05-26T23:32:36.953Z,15.50
2018-05-26T23:35:04.439Z,15.50
2018-05-26T23:37:31.908Z,15.50
2018-05-26T23:39:59.376Z,15.40
2018-05-26T23:42:26.877Z,15.30
2018-05-26T23:44:55.072Z,15.20
2018-05-26T23:47:22.565Z,15.20
2018-05-26T23:49:50.048Z,15.30
2018-05-26T23:52:17.530Z,15.30
2018-05-26T23:54:45.017Z,15.20
2018-05-26T23:57:12.526Z,15.20
2018-05-26T23:59:40.009Z,15.20
